Grover, Missouri
Current Conditions -  °F | °C
As of 8:54 PM on Saturday 22 Nov 2014 (Local Time) from KSUS Reporting Station
Overcast Overcast  
Wind Chill: 54°   Ceiling: 1800
Heat Index: 54°   Visibility: 10mi
Dew Point: 51°   Wind: 7mph
Humidity: 90%   Direction: 200°SSW
Pressure: 29.89"   Gusts: NA
Location:  38.58°N, 90.64°W
Report Text: KSUS 230254Z 20006KT 10SM BKN018 OVC090 12/11 A2989 RMK AO2 RAE53 SLP123 P0001 60002 T01220106 56010
Loading
Personal Weather Stations






























Interactive Weather Map New forecast layout! Learn more

10-Day Weather Forecast

Advertisements
Track Severe Weather on mobile